Time;durP1;ratioP1;P1;durP2;ratioP2;P2;SDS_P1;SDS_P2;PMS_P1;PMS_P2;Temp;Humidity;BMP_temperature;BMP_pressure;BME280_temperature;BME280_humidity;BME280_pressure;Samples;Min_cycle;Max_cycle;Signal;HPM_P1;HPM_P2
2022/04/30 00:00:33;;;;;;;22.27;13.77;;;;;;;12.38;72.42;101059.56;5040572;28;20044;-71
2022/04/30 00:03:00;;;;;;;22.33;14.48;;;;;;;12.37;71.96;101058.69;5041348;28;20056;-74
2022/04/30 00:05:32;;;;;;;27.52;15.50;;;;;;;12.37;71.54;101057.84;5034768;28;20056;-70
2022/04/30 00:08:00;;;;;;;25.60;13.85;;;;;;;12.28;71.73;101046.66;5039982;28;20071;-70
2022/04/30 00:10:27;;;;;;;25.27;14.27;;;;;;;12.19;72.13;101039.13;5041718;28;20506;-68
2022/04/30 00:12:53;;;;;;;20.00;13.38;;;;;;;12.35;71.55;101072.97;5039066;28;20627;-69
2022/04/30 00:15:20;;;;;;;22.42;14.07;;;;;;;12.21;71.85;101058.50;5036194;28;20049;-69
2022/04/30 00:17:47;;;;;;;21.25;13.25;;;;;;;12.08;71.96;101036.06;5055175;28;20052;-67
2022/04/30 00:20:14;;;;;;;18.35;12.80;;;;;;;11.99;72.59;101039.09;5037191;28;20049;-70
2022/04/30 00:22:41;;;;;;;23.27;13.10;;;;;;;12.18;72.44;101076.34;5044246;28;20133;-69
2022/04/30 00:25:08;;;;;;;24.92;13.63;;;;;;;12.09;72.87;101077.63;5041894;28;20781;-69
2022/04/30 00:27:35;;;;;;;19.48;13.00;;;;;;;12.08;72.81;101080.34;5033540;28;20041;-69
2022/04/30 00:30:03;;;;;;;23.02;13.98;;;;;;;12.03;73.10;101074.34;5046603;28;20049;-69
2022/04/30 00:32:30;;;;;;;23.98;13.13;;;;;;;12.05;73.10;101083.97;5041876;28;20493;-68
2022/04/30 00:34:57;;;;;;;21.88;13.38;;;;;;;11.91;73.60;101078.38;5039317;28;20390;-71
2022/04/30 00:37:23;;;;;;;20.33;13.88;;;;;;;11.93;73.88;101105.72;5036946;28;20107;-71
2022/04/30 00:39:50;;;;;;;23.83;14.55;;;;;;;11.89;74.36;101109.44;5041213;28;20136;-68
2022/04/30 00:42:17;;;;;;;19.20;13.18;;;;;;;11.82;74.38;101110.59;5043255;28;20061;-70
2022/04/30 00:44:43;;;;;;;24.42;13.27;;;;;;;11.84;74.78;101119.34;5043067;28;20131;-70
2022/04/30 00:47:18;;;;;;;21.42;12.93;;;;;;;11.83;74.96;101118.50;5034805;28;20466;-72
2022/04/30 00:49:47;;;;;;;21.80;13.27;;;;;;;11.84;75.30;101119.34;5037500;28;20404;-70
2022/04/30 00:52:16;;;;;;;19.80;13.52;;;;;;;11.68;75.61;101091.69;5045673;28;20437;-69
2022/04/30 00:54:49;;;;;;;26.33;14.05;;;;;;;11.84;76.22;101116.69;5047530;28;20049;-70
2022/04/30 00:57:23;;;;;;;18.92;13.20;;;;;;;11.72;76.41;101102.13;5046398;28;20455;-69
2022/04/30 00:59:59;;;;;;;24.15;14.38;;;;;;;11.76;77.13;101086.97;5044159;28;20057;-69
2022/04/30 01:02:31;;;;;;;21.67;14.45;;;;;;;11.87;77.85;101120.09;5042263;28;20052;-67
2022/04/30 01:04:59;;;;;;;23.45;14.77;;;;;;;11.81;78.87;101119.47;5046385;28;20052;-74
2022/04/30 01:07:27;;;;;;;24.20;15.18;;;;;;;11.64;80.57;101092.75;5038873;28;20464;-68
2022/04/30 01:09:54;;;;;;;23.02;14.75;;;;;;;11.66;81.21;101112.97;5044612;28;20120;-68
2022/04/30 01:12:22;;;;;;;24.83;16.33;;;;;;;11.57;81.66;101122.16;5044575;28;20093;-68
2022/04/30 01:14:52;;;;;;;23.38;14.75;;;;;;;11.41;82.23;101112.22;5041125;28;20055;-68
2022/04/30 01:17:20;;;;;;;21.13;14.25;;;;;;;11.37;83.40;101110.59;5045685;28;20074;-69
2022/04/30 01:19:47;;;;;;;20.70;15.18;;;;;;;11.34;83.34;101116.00;5045106;28;20132;-72
2022/04/30 01:22:21;;;;;;;20.90;14.90;;;;;;;11.17;83.52;101083.09;5040413;28;20048;-72
2022/04/30 01:24:49;;;;;;;19.77;14.35;;;;;;;11.29;84.43;101113.56;5036735;28;20441;-68
2022/04/30 01:27:16;;;;;;;21.70;13.82;;;;;;;11.22;84.33;101112.06;5044282;28;20057;-68
2022/04/30 01:29:43;;;;;;;23.70;14.63;;;;;;;11.21;84.93;101131.53;5035600;28;20128;-69
2022/04/30 01:37:41;;;;;;;21.55;14.95;;;;;;;11.13;85.93;101123.03;5043071;28;20047;-68
2022/04/30 01:40:12;;;;;;;22.00;14.15;;;;;;;11.07;85.94;101112.63;5044869;28;20088;-68
2022/04/30 01:42:45;;;;;;;20.67;14.65;;;;;;;11.00;86.15;101109.38;5037113;28;20053;-68
2022/04/30 01:45:11;;;;;;;24.23;14.45;;;;;;;11.08;86.45;101119.66;5043810;28;20041;-68
2022/04/30 01:47:40;;;;;;;21.98;15.55;;;;;;;11.09;87.36;101118.75;5033454;28;20153;-69
2022/04/30 01:50:08;;;;;;;21.90;14.85;;;;;;;10.94;87.49;101090.16;5033822;28;20103;-69
2022/04/30 01:52:35;;;;;;;20.33;15.02;;;;;;;11.14;87.41;101122.09;5044518;28;20052;-71
2022/04/30 01:55:04;;;;;;;21.88;14.77;;;;;;;11.06;87.39;101117.06;5036892;28;20509;-67
2022/04/30 01:57:31;;;;;;;17.95;13.50;;;;;;;10.94;87.36;101111.38;5037722;28;20049;-68
2022/04/30 02:00:00;;;;;;;20.23;14.20;;;;;;;10.97;87.62;101121.88;5038201;28;20053;-70
2022/04/30 02:02:30;;;;;;;19.15;13.70;;;;;;;10.89;87.89;101096.50;5040427;28;20234;-73
2022/04/30 02:05:00;;;;;;;20.20;14.35;;;;;;;10.91;88.41;101107.03;5031131;28;20096;-71
2022/04/30 02:07:28;;;;;;;19.52;14.27;;;;;;;10.84;89.13;101093.19;5030310;28;20057;-69
2022/04/30 02:09:56;;;;;;;19.38;13.85;;;;;;;10.99;89.10;101105.00;5045166;28;20480;-70
2022/04/30 02:12:25;;;;;;;19.58;13.80;;;;;;;10.94;88.74;101106.06;5027855;28;20052;-69
2022/04/30 02:14:53;;;;;;;19.75;14.30;;;;;;;10.86;89.22;101109.84;5043178;28;20053;-68
2022/04/30 02:17:20;;;;;;;17.77;13.85;;;;;;;10.82;89.63;101102.97;5039234;28;20117;-68
2022/04/30 02:22:38;;;;;;;18.58;13.98;;;;;;;10.68;90.41;101097.31;5044598;28;20398;-68
2022/04/30 02:25:12;;;;;;;17.30;13.48;;;;;;;10.52;91.24;101070.50;5042898;28;20053;-70
2022/04/30 02:27:42;;;;;;;21.63;13.70;;;;;;;10.69;90.59;101091.09;5039730;28;20537;-68
2022/04/30 02:30:11;;;;;;;18.15;14.07;;;;;;;10.71;90.72;101091.88;5036064;28;20060;-69
2022/04/30 02:32:53;;;;;;;21.35;14.15;;;;;;;10.75;91.21;101089.97;5043317;28;20455;-68
2022/04/30 02:35:22;;;;;;;19.98;14.38;;;;;;;10.74;90.75;101088.25;5043348;28;20056;-69
2022/04/30 02:37:50;;;;;;;21.20;13.73;;;;;;;10.63;90.60;101072.75;5028581;28;20567;-68
2022/04/30 02:40:18;;;;;;;19.10;14.30;;;;;;;10.62;90.45;101083.41;5022698;28;20053;-68
2022/04/30 02:42:46;;;;;;;20.15;14.60;;;;;;;10.48;90.89;101079.47;5037314;28;20103;-68
2022/04/30 02:45:14;;;;;;;21.50;14.50;;;;;;;10.48;90.96;101078.59;5044702;28;20064;-68
2022/04/30 02:47:43;;;;;;;18.52;13.93;;;;;;;10.47;91.64;101080.38;5045342;28;20051;-68
2022/04/30 02:50:15;;;;;;;17.85;13.65;;;;;;;10.50;91.63;101084.72;5045758;28;20041;-68
2022/04/30 02:52:42;;;;;;;21.08;14.23;;;;;;;10.50;91.57;101084.72;5034197;28;20529;-70
2022/04/30 02:55:11;;;;;;;19.55;14.10;;;;;;;10.49;91.91;101086.50;5042204;28;20137;-67
2022/04/30 02:57:39;;;;;;;18.65;14.10;;;;;;;10.45;91.70;101087.53;5041878;28;20100;-67
2022/04/30 03:00:06;;;;;;;21.20;14.75;;;;;;;10.38;92.36;101070.13;5043157;28;20069;-68
2022/04/30 03:02:33;;;;;;;17.67;14.07;;;;;;;10.44;93.25;101083.13;5048911;28;20096;-68
2022/04/30 03:05:00;;;;;;;19.75;14.65;;;;;;;10.42;92.58;101070.88;5037532;28;20049;-72
2022/04/30 03:07:26;;;;;;;19.02;13.80;;;;;;;10.41;92.60;101069.13;5039908;28;20471;-68
2022/04/30 03:09:53;;;;;;;20.13;14.50;;;;;;;10.41;93.89;101059.41;5046844;28;20071;-67
2022/04/30 03:12:20;;;;;;;19.40;14.13;;;;;;;10.46;93.08;101068.06;5037947;28;20053;-68
2022/04/30 03:14:47;;;;;;;19.60;14.30;;;;;;;10.45;93.02;101060.19;5043692;28;20055;-69
2022/04/30 03:22:47;;;;;;;18.58;13.35;;;;;;;10.29;93.79;101028.09;5043160;28;20052;-70
2022/04/30 03:25:13;;;;;;;19.08;14.00;;;;;;;10.46;94.56;101053.97;5047362;28;20063;-66
2022/04/30 03:27:40;;;;;;;17.15;13.48;;;;;;;10.43;93.50;101047.00;5038828;28;20402;-67
2022/04/30 03:30:07;;;;;;;16.75;13.18;;;;;;;10.45;94.01;101045.16;5040677;28;20132;-74
2022/04/30 03:32:34;;;;;;;17.80;13.70;;;;;;;10.46;94.79;101046.03;5037019;28;20072;-67
2022/04/30 03:35:01;;;;;;;18.05;14.00;;;;;;;10.45;94.56;101042.50;5042710;28;20118;-69
2022/04/30 03:37:27;;;;;;;17.83;13.40;;;;;;;10.36;94.55;101032.25;5039139;28;20084;-69
2022/04/30 03:39:54;;;;;;;16.27;13.57;;;;;;;10.24;94.59;101021.22;5050769;28;20072;-66
2022/04/30 03:42:21;;;;;;;17.75;13.82;;;;;;;10.15;94.89;101015.31;5040041;28;20552;-68
2022/04/30 03:44:49;;;;;;;16.67;13.45;;;;;;;10.23;95.99;101027.47;5046646;28;20156;-69
2022/04/30 03:47:15;;;;;;;19.45;14.57;;;;;;;10.05;96.12;100997.19;5039127;28;20546;-69
2022/04/30 03:49:42;;;;;;;17.70;14.68;;;;;;;10.02;96.59;101000.78;5040658;28;20099;-67
2022/04/30 03:52:11;;;;;;;18.55;14.82;;;;;;;10.11;97.22;101011.03;5040334;28;20083;-71
2022/04/30 03:54:39;;;;;;;18.88;14.45;;;;;;;10.07;97.09;101009.41;5040770;28;20115;-70
2022/04/30 03:57:06;;;;;;;18.65;14.27;;;;;;;10.17;97.34;101024.06;5040297;28;20061;-75
2022/04/30 03:59:33;;;;;;;17.63;13.75;;;;;;;10.20;96.43;101033.72;5041435;28;20145;-67
2022/04/30 04:02:00;;;;;;;18.55;14.73;;;;;;;10.14;96.48;101032.13;5038140;28;20132;-70
2022/04/30 04:04:29;;;;;;;21.70;16.00;;;;;;;10.16;95.93;101042.66;5032993;28;20115;-67
2022/04/30 04:06:57;;;;;;;19.33;14.70;;;;;;;10.16;96.39;101029.41;5045089;28;20045;-67
2022/04/30 04:09:24;;;;;;;19.52;15.50;;;;;;;10.14;95.09;101042.69;5037872;28;20099;-70
2022/04/30 04:11:50;;;;;;;21.25;15.90;;;;;;;10.08;94.94;101019.09;5011151;28;20037;-68
2022/04/30 04:19:47;;;;;;;21.00;16.45;;;;;;;10.05;94.43;101032.44;5032052;28;20056;-69
2022/04/30 04:22:14;;;;;;;22.65;17.45;;;;;;;10.07;93.79;101030.59;5045647;28;20048;-67
2022/04/30 04:27:26;;;;;;;20.23;16.45;;;;;;;10.09;93.22;101033.19;5046455;28;20136;-67
2022/04/30 04:29:52;;;;;;;22.00;17.00;;;;;;;10.11;92.75;101028.69;5036765;28;20208;-70
2022/04/30 04:32:19;;;;;;;24.13;18.10;;;;;;;10.07;93.23;101030.59;5051317;28;20084;-67
2022/04/30 04:34:46;;;;;;;22.60;18.30;;;;;;;10.05;92.02;101032.44;5043862;28;20064;-70
2022/04/30 04:37:17;;;;;;;23.73;17.52;;;;;;;9.89;92.21;101006.56;5041250;28;20164;-69
2022/04/30 04:39:43;;;;;;;25.45;17.60;;;;;;;10.04;92.31;101033.38;5040558;28;20566;-69
2022/04/30 04:42:10;;;;;;;24.33;16.90;;;;;;;10.06;91.90;101036.81;5043387;28;20504;-71
2022/04/30 04:44:37;;;;;;;24.77;17.63;;;;;;;10.04;91.42;101035.13;5040082;28;20053;-68
2022/04/30 04:47:04;;;;;;;23.05;17.58;;;;;;;10.00;91.99;101022.94;5046201;28;20040;-71
2022/04/30 04:49:32;;;;;;;21.98;16.90;;;;;;;10.03;91.89;101026.34;5044436;28;20126;-72
2022/04/30 04:52:01;;;;;;;27.77;18.45;;;;;;;9.97;91.80;101023.03;5041474;28;20049;-70
2022/04/30 04:54:28;;;;;;;25.60;18.23;;;;;;;9.98;92.27;101028.25;5046187;28;20049;-68
2022/04/30 04:56:54;;;;;;;24.50;18.60;;;;;;;9.93;92.19;101027.56;5041399;28;20060;-69
2022/04/30 04:59:21;;;;;;;22.75;17.65;;;;;;;9.94;92.04;101026.63;5041540;28;20065;-69
2022/04/30 05:01:48;;;;;;;25.65;17.50;;;;;;;10.00;90.88;101034.38;5045064;28;20049;-68
2022/04/30 05:04:16;;;;;;;25.30;17.77;;;;;;;9.94;90.62;101042.50;5036017;28;20085;-68
2022/04/30 05:06:44;;;;;;;24.80;17.58;;;;;;;9.92;90.88;101040.81;5042148;28;20053;-69
2022/04/30 05:09:10;;;;;;;24.40;16.90;;;;;;;9.86;91.01;101023.41;5045616;28;20045;-68
2022/04/30 05:11:37;;;;;;;23.50;17.23;;;;;;;9.89;90.22;101025.94;5040850;28;20133;-72
2022/04/30 05:14:04;;;;;;;22.65;16.92;;;;;;;9.92;88.88;101039.03;5031553;28;20069;-70
2022/04/30 05:16:31;;;;;;;23.95;16.58;;;;;;;9.92;88.53;101051.41;5042511;28;20128;-68
2022/04/30 05:18:58;;;;;;;25.83;17.35;;;;;;;9.81;89.00;101035.91;5040513;28;20084;-70
2022/04/30 05:21:25;;;;;;;23.55;16.70;;;;;;;9.93;89.54;101058.44;5043294;28;20481;-68
2022/04/30 05:23:52;;;;;;;24.63;17.13;;;;;;;9.92;89.66;101057.56;5048723;28;20083;-67
2022/04/30 05:26:18;;;;;;;26.35;17.75;;;;;;;9.74;91.14;101061.72;5036421;28;20143;-69
2022/04/30 05:28:45;;;;;;;21.75;16.15;;;;;;;9.52;92.26;101059.81;5049725;28;20049;-67
2022/04/30 05:31:11;;;;;;;29.33;19.48;;;;;;;9.33;94.26;101063.03;5046025;28;20044;-67
2022/04/30 05:33:38;;;;;;;27.08;18.77;;;;;;;9.21;96.51;101071.34;5046077;28;20049;-67
2022/04/30 05:36:05;;;;;;;33.35;21.05;;;;;;;9.08;98.72;101064.69;5043848;28;20061;-66
2022/04/30 05:38:31;;;;;;;28.27;20.13;;;;;;;9.03;100.00;101066.59;5036093;28;20475;-66
2022/04/30 05:40:58;;;;;;;33.10;20.90;;;;;;;9.02;100.00;101072.78;5036460;28;20125;-66
2022/04/30 05:43:24;;;;;;;37.10;22.90;;;;;;;8.86;100.00;101063.59;5042545;28;20335;-66
2022/04/30 05:45:51;;;;;;;33.80;22.83;;;;;;;8.83;100.00;101068.97;5037011;28;20106;-67
2022/04/30 05:48:18;;;;;;;33.00;22.95;;;;;;;8.78;100.00;101080.53;5046801;28;20055;-66
2022/04/30 05:50:45;;;;;;;36.92;24.20;;;;;;;8.72;100.00;101078.06;5044290;28;20053;-65
2022/04/30 05:53:11;;;;;;;35.40;24.05;;;;;;;8.72;100.00;101083.34;5038803;28;20076;-65
2022/04/30 05:55:39;;;;;;;34.17;24.02;;;;;;;8.63;100.00;101078.34;5046892;28;20053;-67
2022/04/30 05:58:06;;;;;;;34.63;23.67;;;;;;;8.59;100.00;101092.53;5037267;28;20049;-66
2022/04/30 06:00:33;;;;;;;29.45;22.08;;;;;;;8.48;100.00;101072.63;5046037;28;20067;-66
2022/04/30 06:02:59;;;;;;;33.80;22.95;;;;;;;8.50;100.00;101094.56;5050192;28;20053;-65
2022/04/30 06:05:26;;;;;;;35.30;22.50;;;;;;;8.45;100.00;101094.69;5039808;28;20132;-68
2022/04/30 06:07:53;;;;;;;33.17;22.33;;;;;;;8.49;100.00;101095.47;5048693;28;20124;-68
2022/04/30 06:10:20;;;;;;;35.92;22.15;;;;;;;8.34;100.00;101073.00;5032828;28;20538;-67
2022/04/30 06:12:47;;;;;;;35.40;23.05;;;;;;;8.40;100.00;101093.94;5052285;28;20136;-67
2022/04/30 06:15:13;;;;;;;38.78;23.40;;;;;;;8.44;100.00;101087.66;5045153;28;20064;-67
2022/04/30 06:17:40;;;;;;;39.35;23.48;;;;;;;8.39;100.00;101081.63;5043430;28;20197;-67
2022/04/30 06:20:08;;;;;;;35.35;23.48;;;;;;;8.52;100.00;101090.09;5037361;28;20041;-69
2022/04/30 06:22:34;;;;;;;37.47;22.63;;;;;;;8.57;100.00;101086.41;5053744;28;20042;-69
2022/04/30 06:25:01;;;;;;;36.65;23.05;;;;;;;8.63;100.00;101098.59;5045964;28;20060;-68
2022/04/30 06:27:28;;;;;;;34.50;22.60;;;;;;;8.57;100.00;101089.06;5050493;28;20055;-69
2022/04/30 06:29:54;;;;;;;36.15;24.23;;;;;;;8.59;100.00;101099.56;5044223;28;20089;-66
2022/04/30 06:32:21;;;;;;;35.20;23.40;;;;;;;8.43;100.00;101091.22;5047191;28;20704;-67
2022/04/30 06:34:48;;;;;;;37.55;24.15;;;;;;;8.51;100.00;101110.34;5038336;28;20080;-69
2022/04/30 06:37:15;;;;;;;36.35;22.90;;;;;;;8.49;100.00;101108.66;5036388;28;20072;-66
2022/04/30 06:39:41;;;;;;;36.20;22.90;;;;;;;8.51;100.00;101117.38;5038770;28;20053;-67
2022/04/30 06:42:08;;;;;;;33.45;22.42;;;;;;;8.56;100.00;101124.28;5037886;28;20500;-67
2022/04/30 06:44:35;;;;;;;33.22;21.35;;;;;;;8.49;100.00;101121.88;5038723;28;20128;-67
2022/04/30 06:47:03;;;;;;;35.65;23.70;;;;;;;8.33;100.00;101124.91;5041349;28;20130;-67
2022/04/30 06:49:30;;;;;;;31.80;22.42;;;;;;;8.40;100.00;101137.03;5046999;28;20354;-66
2022/04/30 06:51:57;;;;;;;34.70;22.70;;;;;;;8.54;100.00;101141.94;5026936;28;20053;-67
2022/04/30 06:57:11;;;;;;;35.42;22.90;;;;;;;8.65;100.00;101144.31;5040799;28;20493;-68
2022/04/30 06:59:41;;;;;;;31.17;20.95;;;;;;;8.61;100.00;101140.00;5048195;28;20045;-70
2022/04/30 07:02:22;;;;;;;34.90;21.48;;;;;;;8.53;100.00;101142.84;5044866;28;20055;-70
2022/04/30 07:04:51;;;;;;;;;;;;;;;8.51;100.00;101149.94;5043492;28;20122;-67
2022/04/30 07:07:19;;;;;;;34.70;21.48;;;;;;;8.56;100.00;101152.44;5048045;28;19959;-68
2022/04/30 07:09:50;;;;;;;32.25;20.98;;;;;;;8.56;100.00;101148.03;5047513;28;20071;-69
2022/04/30 07:12:17;;;;;;;34.72;21.30;;;;;;;8.60;100.00;101157.63;5040503;28;20080;-68
2022/04/30 07:14:45;;;;;;;29.50;20.25;;;;;;;8.57;100.00;101146.28;5032243;28;20132;-70
2022/04/30 07:17:14;;;;;;;37.13;21.83;;;;;;;8.63;100.00;101151.41;5030175;28;20053;-68
2022/04/30 07:19:41;;;;;;;29.90;20.45;;;;;;;8.63;100.00;101146.13;5029375;28;20076;-70
2022/04/30 07:22:08;;;;;;;30.33;20.58;;;;;;;8.70;100.00;101148.53;5039298;28;20398;-68
2022/04/30 07:24:35;;;;;;;30.35;20.98;;;;;;;8.77;100.00;101149.25;5038540;28;20570;-68
2022/04/30 07:27:04;;;;;;;31.15;20.58;;;;;;;8.84;100.00;101157.84;5037792;28;20041;-67
2022/04/30 07:29:33;;;;;;;31.75;21.05;;;;;;;8.86;100.00;101137.53;5040494;28;20060;-71
2022/04/30 07:32:00;;;;;;;31.83;20.60;;;;;;;8.92;100.00;101145.31;5040761;28;20052;-68
2022/04/30 07:34:27;;;;;;;35.58;21.23;;;;;;;9.00;100.00;101141.53;5037906;28;20136;-68
2022/04/30 07:36:56;;;;;;;34.90;21.73;;;;;;;9.09;100.00;101146.56;5031894;28;20052;-70
2022/04/30 07:39:23;;;;;;;32.90;21.40;;;;;;;9.10;100.00;101147.44;5035523;28;20071;-71
2022/04/30 07:41:53;;;;;;;28.27;19.95;;;;;;;9.04;100.00;101147.59;5035313;28;20145;-66
2022/04/30 07:44:20;;;;;;;30.90;20.73;;;;;;;9.05;100.00;101157.25;5031257;28;20068;-70
2022/04/30 07:46:47;;;;;;;32.10;20.67;;;;;;;9.03;100.00;101159.06;5037878;28;20037;-67
2022/04/30 07:49:14;;;;;;;26.38;18.98;;;;;;;8.86;100.00;101148.97;5019007;28;20041;-67
2022/04/30 07:51:52;;;;;;;28.15;18.55;;;;;;;8.75;100.00;101151.91;5033548;28;20397;-67
2022/04/30 07:54:20;;;;;;;32.78;21.70;;;;;;;8.61;100.00;101140.88;5035711;28;20040;-70
2022/04/30 07:56:50;;;;;;;31.80;21.10;;;;;;;8.70;100.00;101159.09;5035414;28;20041;-67
2022/04/30 07:59:16;;;;;;;33.80;21.00;;;;;;;8.75;100.00;101158.97;5037740;28;20045;-68
2022/04/30 08:01:43;;;;;;;31.13;20.20;;;;;;;8.84;100.00;101166.63;5035451;28;21331;-68
2022/04/30 08:04:10;;;;;;;30.42;19.13;;;;;;;8.86;100.00;101163.97;5032540;28;20484;-69
2022/04/30 08:06:37;;;;;;;23.20;16.70;;;;;;;8.88;100.00;101167.41;5034449;28;20060;-68
2022/04/30 08:09:04;;;;;;;23.17;15.27;;;;;;;8.89;100.00;101171.81;5029813;28;20049;-71
2022/04/30 08:11:30;;;;;;;23.10;14.88;;;;;;;8.73;100.00;101158.16;5037871;28;20052;-67
2022/04/30 08:13:57;;;;;;;22.38;14.88;;;;;;;8.56;100.00;101160.38;5035711;28;20053;-68
2022/04/30 08:16:28;;;;;;;19.75;14.57;;;;;;;8.61;100.00;101176.97;5034261;28;20705;-68
2022/04/30 08:18:56;;;;;;;20.88;14.50;;;;;;;8.67;100.00;101179.44;5042774;28;20503;-67
2022/04/30 08:21:23;;;;;;;22.58;13.55;;;;;;;8.53;100.00;101161.31;5037377;28;20583;-70
2022/04/30 08:23:50;;;;;;;22.50;13.68;;;;;;;8.58;100.00;101187.59;5037310;28;20124;-74
2022/04/30 08:26:17;;;;;;;17.05;12.10;;;;;;;8.54;100.00;101181.53;5035293;28;20148;-71
2022/04/30 08:28:44;;;;;;;18.08;12.75;;;;;;;8.49;100.00;101180.81;5037367;28;20064;-68
2022/04/30 08:31:11;;;;;;;17.65;12.52;;;;;;;8.51;100.00;101188.66;5034789;28;20910;-70
2022/04/30 08:33:38;;;;;;;17.13;12.20;;;;;;;8.48;100.00;101184.34;5034865;28;20100;-70
2022/04/30 08:36:07;;;;;;;16.52;12.65;;;;;;;8.51;100.00;101188.66;5037110;28;20118;-71
2022/04/30 08:38:34;;;;;;;18.88;12.43;;;;;;;8.55;100.00;101177.13;5034706;28;20048;-71
2022/04/30 08:41:00;;;;;;;20.83;12.90;;;;;;;8.56;100.00;101170.94;5036346;28;20142;-68
2022/04/30 08:43:28;;;;;;;15.35;11.27;;;;;;;8.58;100.00;101190.25;5036977;28;20136;-70
2022/04/30 08:45:55;;;;;;;15.32;9.98;;;;;;;8.54;100.00;101183.31;5034711;28;20055;-72
2022/04/30 08:48:26;;;;;;;17.00;11.27;;;;;;;8.49;100.00;101177.28;5037446;28;20060;-70
2022/04/30 08:50:53;;;;;;;17.73;10.48;;;;;;;8.42;100.00;101174.81;5033947;28;20123;-72
2022/04/30 08:53:20;;;;;;;16.50;11.18;;;;;;;8.41;100.00;101175.72;5037016;28;20888;-67
2022/04/30 08:55:46;;;;;;;16.27;11.25;;;;;;;8.44;100.00;101182.69;5020181;28;20076;-69
2022/04/30 08:58:15;;;;;;;15.85;11.43;;;;;;;8.46;100.00;101185.28;5031380;28;21912;-71
2022/04/30 09:00:46;;;;;;;15.82;11.23;;;;;;;8.35;100.00;101164.44;5035287;28;20406;-68
2022/04/30 09:03:15;;;;;;;16.50;11.73;;;;;;;8.32;100.00;101165.41;5034986;28;20049;-68
2022/04/30 09:05:42;;;;;;;16.20;12.45;;;;;;;8.46;100.00;101185.28;5036719;28;20522;-70
2022/04/30 09:08:09;;;;;;;25.42;13.10;;;;;;;8.51;100.00;101178.09;5032115;28;20060;-71
2022/04/30 09:10:37;;;;;;;15.30;10.98;;;;;;;8.52;100.00;101177.19;5035947;28;21381;-68
2022/04/30 09:13:04;;;;;;;18.30;11.80;;;;;;;8.64;100.00;101179.53;5035105;28;20041;-71
2022/04/30 09:15:32;;;;;;;18.27;11.30;;;;;;;8.56;100.00;101170.94;5034959;28;20530;-68
2022/04/30 09:17:59;;;;;;;15.18;10.90;;;;;;;8.54;100.00;101176.25;5032833;28;20052;-68
2022/04/30 09:20:26;;;;;;;15.93;11.27;;;;;;;8.64;100.00;101176.91;5020464;28;20102;-69
2022/04/30 09:22:53;;;;;;;16.58;11.93;;;;;;;8.58;100.00;101162.06;5036668;28;20065;-71
2022/04/30 09:25:20;;;;;;;15.30;11.50;;;;;;;8.60;100.00;101172.59;5036354;28;20099;-69
2022/04/30 09:28:04;;;;;;;16.17;11.00;;;;;;;8.36;100.00;101147.69;5034449;28;20053;-70
2022/04/30 09:30:32;;;;;;;16.05;11.40;;;;;;;8.44;100.00;101169.50;5032826;28;20045;-68
2022/04/30 09:32:59;;;;;;;16.75;11.98;;;;;;;8.42;100.00;101177.44;5034533;28;20060;-68
2022/04/30 09:38:12;;;;;;;15.85;11.40;;;;;;;8.34;100.00;101170.63;5041330;28;20504;-68
2022/04/30 09:40:39;;;;;;;16.65;12.00;;;;;;;8.28;100.00;101152.28;5036114;28;20970;-68
2022/04/30 09:43:17;;;;;;;18.60;12.75;;;;;;;8.33;100.00;101171.53;5037343;28;20120;-71
2022/04/30 09:45:44;;;;;;;17.17;12.38;;;;;;;8.31;100.00;101170.69;5034927;28;20421;-69
2022/04/30 09:53:56;;;;;;;19.38;12.75;;;;;;;8.18;100.00;101158.69;5036170;28;20515;-71
2022/04/30 09:56:39;;;;;;;18.42;12.65;;;;;;;8.07;100.00;101136.06;5017661;28;20123;-70
2022/04/30 09:59:10;;;;;;;19.75;13.63;;;;;;;8.29;100.00;101161.94;5035408;28;20136;-69
2022/04/30 10:01:42;;;;;;;20.33;14.18;;;;;;;8.31;100.00;101163.63;5035814;28;20056;-73
2022/04/30 10:04:12;;;;;;;18.92;13.57;;;;;;;8.21;100.00;101145.41;5029434;28;20061;-72
2022/04/30 10:06:48;;;;;;;22.90;13.20;;;;;;;8.32;100.00;101167.16;5033936;28;20076;-68
2022/04/30 10:09:28;;;;;;;19.50;13.13;;;;;;;8.28;100.00;101173.38;5034988;28;20506;-67
2022/04/30 10:12:14;;;;;;;20.90;13.50;;;;;;;8.14;100.00;101175.50;5037774;28;20057;-69
2022/04/30 10:14:50;;;;;;;19.50;13.13;;;;;;;8.13;100.00;101176.41;5034785;28;20049;-68
2022/04/30 10:17:23;;;;;;;17.48;12.35;;;;;;;8.14;100.00;101173.72;5034814;28;20107;-70
2022/04/30 10:19:57;;;;;;;19.00;13.90;;;;;;;8.09;100.00;101171.19;5019629;28;20053;-68
2022/04/30 10:22:24;;;;;;;19.80;13.20;;;;;;;8.10;100.00;101167.66;5034108;28;20062;-69
2022/04/30 10:24:56;;;;;;;19.95;14.23;;;;;;;8.10;100.00;101156.25;5036957;28;20204;-72
2022/04/30 10:27:24;;;;;;;24.08;14.45;;;;;;;8.15;100.00;101182.50;5037016;28;20068;-68
2022/04/30 10:29:58;;;;;;;19.20;14.60;;;;;;;8.19;100.00;101176.22;5035438;28;20057;-70
2022/04/30 10:32:33;;;;;;;19.15;13.57;;;;;;;8.15;100.00;101164.06;5034168;28;20044;-75
2022/04/30 10:35:01;;;;;;;22.05;14.27;;;;;;;7.92;100.00;101136.44;5044444;28;20053;-70
2022/04/30 10:37:36;;;;;;;21.45;14.90;;;;;;;8.26;100.00;101175.19;5035906;28;20516;-75
2022/04/30 10:40:06;;;;;;;17.75;13.93;;;;;;;8.32;100.00;101177.72;5034875;28;20116;-71
2022/04/30 10:42:39;;;;;;;22.15;14.52;;;;;;;8.34;100.00;101168.00;5034778;28;20041;-67
2022/04/30 10:45:12;;;;;;;21.85;14.88;;;;;;;8.34;100.00;101165.38;5036813;28;20045;-68
2022/04/30 10:47:53;;;;;;;21.90;14.60;;;;;;;8.36;100.00;101172.31;5040668;28;20088;-67
2022/04/30 10:50:20;;;;;;;21.05;14.60;;;;;;;8.30;100.00;101172.44;5039369;28;20037;-67
2022/04/30 10:52:48;;;;;;;21.08;14.25;;;;;;;8.23;100.00;101164.72;5040126;28;20052;-72
2022/04/30 10:55:16;;;;;;;18.45;13.68;;;;;;;8.23;100.00;101170.00;5038496;28;20053;-67
2022/04/30 10:57:44;;;;;;;23.25;14.93;;;;;;;8.22;100.00;101174.41;5044297;28;20659;-67
2022/04/30 11:00:13;;;;;;;20.00;14.55;;;;;;;8.05;100.00;101148.44;5024120;28;20418;-67
2022/04/30 11:02:47;;;;;;;24.77;15.80;;;;;;;8.19;100.00;101170.97;5038840;28;20056;-67
2022/04/30 11:05:24;;;;;;;25.10;15.80;;;;;;;8.26;100.00;101172.56;5040334;28;20057;-68
2022/04/30 11:07:51;;;;;;;21.88;15.27;;;;;;;8.25;100.00;101174.31;5039061;28;20037;-65
2022/04/30 11:10:18;;;;;;;23.20;15.77;;;;;;;8.25;100.00;101168.19;5039984;28;20080;-66
2022/04/30 11:12:45;;;;;;;21.67;15.20;;;;;;;8.29;100.00;101159.28;5039768;28;20417;-69
2022/04/30 11:15:14;;;;;;;23.13;15.93;;;;;;;8.30;100.00;101166.31;5021921;28;20048;-72
2022/04/30 11:17:47;;;;;;;25.10;16.77;;;;;;;8.37;100.00;101157.34;5038826;28;20051;-67
2022/04/30 11:20:22;;;;;;;22.83;16.15;;;;;;;8.40;100.00;101152.00;5035892;28;20049;-69
2022/04/30 11:23:06;;;;;;;21.38;15.80;;;;;;;8.27;100.00;101138.22;5038741;28;20058;-67
2022/04/30 11:25:38;;;;;;;21.10;15.27;;;;;;;8.25;100.00;101134.75;5043680;28;20511;-66
2022/04/30 11:28:07;;;;;;;24.88;16.27;;;;;;;8.40;100.00;101155.50;5039634;28;20049;-67
2022/04/30 11:30:38;;;;;;;25.73;17.08;;;;;;;8.42;100.00;101153.69;5036122;28;20148;-67
2022/04/30 11:33:05;;;;;;;22.38;16.08;;;;;;;8.44;100.00;101156.28;5039747;28;20083;-68
2022/04/30 11:35:32;;;;;;;24.55;16.90;;;;;;;8.51;100.00;101152.56;5039638;28;20122;-68
2022/04/30 11:37:59;;;;;;;21.38;16.75;;;;;;;8.59;100.00;101144.47;5037500;28;20052;-68
2022/04/30 11:40:26;;;;;;;25.10;16.85;;;;;;;8.66;100.00;101159.22;5038611;28;20131;-69
2022/04/30 11:42:56;;;;;;;20.83;15.80;;;;;;;8.68;100.00;101157.41;5039213;28;20049;-65
2022/04/30 11:45:26;;;;;;;25.60;16.25;;;;;;;8.52;100.00;101132.31;5037036;28;20098;-66
2022/04/30 11:47:53;;;;;;;25.25;16.45;;;;;;;8.66;100.00;101157.44;5036746;28;20187;-66